createdAt,value
2023-04-28T00:00:36.734Z,98979.72
2023-04-28T00:03:03.741Z,98978.19
2023-04-28T00:05:30.764Z,98974.28
2023-04-28T00:07:57.751Z,98981.84
2023-04-28T00:10:26.864Z,98975.59
2023-04-28T00:12:53.689Z,98972.66
2023-04-28T00:15:21.055Z,98966.44
2023-04-28T00:17:49.604Z,98963.19
2023-04-28T00:20:16.838Z,98965.69
2023-04-28T00:23:20.718Z,98963.28
2023-04-28T00:25:54.897Z,98958.50
2023-04-28T00:28:33.371Z,98953.63
2023-04-28T00:31:01.562Z,98939.81
2023-04-28T00:33:28.514Z,98943.78
2023-04-28T00:36:01.900Z,98946.34
2023-04-28T00:38:28.962Z,98930.16
2023-04-28T00:40:57.363Z,98932.09
2023-04-28T00:43:24.544Z,98926.91
2023-04-28T00:45:54.565Z,98929.09
2023-04-28T00:48:22.876Z,98913.13
2023-04-28T00:50:49.807Z,98913.03
2023-04-28T00:53:16.831Z,98900.97
2023-04-28T00:55:43.652Z,98904.38
2023-04-28T00:58:10.716Z,98901.34
2023-04-28T01:00:37.879Z,98897.25
2023-04-28T01:03:05.134Z,98898.91
2023-04-28T01:05:38.074Z,98896.41
2023-04-28T01:08:05.066Z,98896.94
2023-04-28T01:10:32.997Z,98886.88
2023-04-28T01:13:09.221Z,98891.44
2023-04-28T01:15:36.150Z,98892.47
2023-04-28T01:18:03.138Z,98891.13
2023-04-28T01:20:30.602Z,98876.44
2023-04-28T01:22:57.632Z,98883.56
2023-04-28T01:25:24.643Z,98887.47
2023-04-28T01:27:53.127Z,98883.84
2023-04-28T01:30:20.020Z,98878.13
2023-04-28T01:32:46.886Z,98876.97
2023-04-28T01:35:13.773Z,98874.28
2023-04-28T01:37:41.274Z,98873.19
2023-04-28T01:40:08.824Z,98870.31
2023-04-28T01:42:38.191Z,98865.38
2023-04-28T01:45:05.512Z,98863.81
2023-04-28T01:47:32.539Z,98870.59
2023-04-28T01:49:59.424Z,98858.25
2023-04-28T01:52:28.040Z,98863.63
2023-04-28T01:54:55.140Z,98856.81
2023-04-28T01:57:22.482Z,98854.69
2023-04-28T01:59:49.701Z,98850.75
2023-04-28T02:02:17.051Z,98844.22
2023-04-28T02:04:44.021Z,98842.78
2023-04-28T02:07:10.932Z,98846.94
2023-04-28T02:09:37.838Z,98843.75
2023-04-28T02:12:04.867Z,98846.59
2023-04-28T02:14:35.235Z,98845.19
2023-04-28T02:17:03.349Z,98844.38
2023-04-28T02:19:30.169Z,98832.75
2023-04-28T02:21:57.042Z,98823.75
2023-04-28T02:24:23.830Z,98823.56
2023-04-28T02:26:52.025Z,98825.59
2023-04-28T02:29:18.701Z,98821.28
2023-04-28T02:31:45.518Z,98819.19
2023-04-28T02:34:12.796Z,98812.84
2023-04-28T02:36:39.776Z,98815.84
2023-04-28T02:39:07.532Z,98815.53
2023-04-28T02:41:34.859Z,98815.97
2023-04-28T02:44:01.894Z,98818.44
2023-04-28T02:46:28.771Z,98820.06
2023-04-28T02:48:55.522Z,98819.00
2023-04-28T02:51:23.417Z,98821.19
2023-04-28T02:53:50.256Z,98816.75
2023-04-28T02:56:17.264Z,98820.09
2023-04-28T02:58:44.168Z,98811.81
2023-04-28T03:01:11.167Z,98820.94
2023-04-28T03:03:38.857Z,98826.38
2023-04-28T03:06:06.215Z,98815.34
2023-04-28T03:08:33.161Z,98821.59
2023-04-28T03:10:59.974Z,98816.00
2023-04-28T03:13:29.961Z,98811.97
2023-04-28T03:15:57.425Z,98806.47
2023-04-28T03:18:24.593Z,98793.53
2023-04-28T03:20:51.453Z,98790.81
2023-04-28T03:23:18.360Z,98798.03
2023-04-28T03:25:45.182Z,98800.81
2023-04-28T03:28:12.235Z,98802.31
2023-04-28T03:30:39.855Z,98792.66
2023-04-28T03:33:07.503Z,98795.09
2023-04-28T03:35:34.510Z,98798.94
2023-04-28T03:38:01.985Z,98797.16
2023-04-28T03:40:28.974Z,98796.31
2023-04-28T03:43:10.921Z,98785.69
2023-04-28T03:45:43.658Z,98785.38
2023-04-28T03:48:10.770Z,98777.13
2023-04-28T03:50:37.995Z,98777.81
2023-04-28T03:53:05.248Z,98772.72
2023-04-28T03:55:33.368Z,98769.66
2023-04-28T03:58:00.441Z,98771.59
2023-04-28T04:00:27.309Z,98777.91
2023-04-28T04:02:54.992Z,98769.47
2023-04-28T04:05:22.828Z,98759.19
2023-04-28T04:07:49.847Z,98739.41
2023-04-28T04:10:17.327Z,98737.28
2023-04-28T04:12:45.339Z,98748.81
2023-04-28T04:15:12.504Z,98751.53
2023-04-28T04:17:40.595Z,98749.28
2023-04-28T04:20:08.214Z,98744.88
2023-04-28T04:22:35.210Z,98747.22
2023-04-28T04:25:02.490Z,98742.25
2023-04-28T04:27:29.661Z,98746.22
2023-04-28T04:29:56.483Z,98746.13
2023-04-28T04:32:23.505Z,98736.94
2023-04-28T04:34:50.732Z,98739.13
2023-04-28T04:37:18.462Z,98741.88
2023-04-28T04:39:52.154Z,98729.03
2023-04-28T04:42:25.293Z,98733.34
2023-04-28T04:45:15.080Z,98729.78
2023-04-28T04:47:42.606Z,98729.66
2023-04-28T04:50:11.913Z,98729.81
2023-04-28T04:52:39.361Z,98732.75
2023-04-28T04:55:07.045Z,98729.91
2023-04-28T04:57:34.154Z,98735.22
2023-04-28T05:00:07.119Z,98732.34
2023-04-28T05:02:37.027Z,98732.47
2023-04-28T05:05:20.492Z,98730.50
2023-04-28T05:08:08.985Z,98726.19
2023-04-28T05:10:38.114Z,98733.81
2023-04-28T05:13:04.999Z,98736.38
2023-04-28T05:15:32.190Z,98747.66
2023-04-28T05:18:22.701Z,98740.16
2023-04-28T05:20:50.266Z,98744.69
2023-04-28T05:23:21.148Z,98741.78
2023-04-28T05:25:48.293Z,98749.41
2023-04-28T05:28:15.557Z,98749.44
2023-04-28T05:30:45.028Z,98754.25
2023-04-28T05:33:19.311Z,98761.81
2023-04-28T05:35:49.406Z,98768.97
2023-04-28T05:38:17.758Z,98786.59
2023-04-28T05:40:46.102Z,98788.50
2023-04-28T05:43:13.517Z,98789.50
2023-04-28T05:45:40.935Z,98775.22
2023-04-28T05:48:10.818Z,98761.81
2023-04-28T05:50:43.287Z,98736.41
2023-04-28T05:53:11.397Z,98746.81
2023-04-28T05:55:40.158Z,98745.56
2023-04-28T05:58:09.682Z,98752.78
2023-04-28T06:00:38.012Z,98747.19
2023-04-28T06:03:11.523Z,98752.94
2023-04-28T06:05:39.073Z,98763.97
2023-04-28T06:08:07.928Z,98773.81
2023-04-28T06:10:34.813Z,98787.66
2023-04-28T06:13:04.981Z,98791.47
2023-04-28T06:15:36.226Z,98795.06
2023-04-28T06:18:07.356Z,98792.34
2023-04-28T06:20:34.415Z,98778.03
2023-04-28T06:23:04.835Z,98782.66
2023-04-28T06:25:32.127Z,98784.09
2023-04-28T06:28:00.685Z,98778.59
2023-04-28T06:30:27.647Z,98776.66
2023-04-28T06:32:56.186Z,98772.03
2023-04-28T06:35:23.566Z,98777.63
2023-04-28T06:37:54.372Z,98760.75
2023-04-28T06:40:21.909Z,98769.44
2023-04-28T06:42:54.186Z,98777.16
2023-04-28T06:45:27.126Z,98764.59
2023-04-28T06:47:57.086Z,98759.94
2023-04-28T06:50:24.660Z,98759.03
2023-04-28T06:52:51.946Z,98761.91
2023-04-28T06:55:19.133Z,98771.59
2023-04-28T06:57:46.128Z,98767.19
2023-04-28T07:00:14.325Z,98768.69
2023-04-28T07:02:41.260Z,98776.19
2023-04-28T07:05:09.037Z,98769.41
2023-04-28T07:07:38.784Z,98769.19
2023-04-28T07:10:15.111Z,98767.03
2023-04-28T07:12:42.107Z,98777.75
2023-04-28T07:15:10.366Z,98781.38
2023-04-28T07:17:38.138Z,98776.66
2023-04-28T07:20:06.221Z,98774.25
2023-04-28T07:22:34.788Z,98774.97
2023-04-28T07:25:04.793Z,98777.31
2023-04-28T07:27:31.616Z,98767.09
2023-04-28T07:29:59.923Z,98767.41
2023-04-28T07:32:29.195Z,98769.56
2023-04-28T07:34:56.064Z,98768.78
2023-04-28T07:37:23.260Z,98765.72
2023-04-28T07:39:50.337Z,98750.13
2023-04-28T07:42:20.188Z,98747.19
2023-04-28T07:44:48.399Z,98742.22
2023-04-28T07:47:16.938Z,98745.28
2023-04-28T07:49:43.768Z,98742.34
2023-04-28T07:52:10.754Z,98731.19
2023-04-28T07:54:46.157Z,98712.31
2023-04-28T07:57:13.236Z,98716.97
2023-04-28T07:59:40.223Z,98722.38
2023-04-28T08:02:08.051Z,98723.78
2023-04-28T08:04:40.459Z,98727.66
2023-04-28T08:07:09.072Z,98715.31
2023-04-28T08:09:36.447Z,98689.75
2023-04-28T08:12:05.973Z,98701.97
2023-04-28T08:14:33.031Z,98700.84
2023-04-28T08:16:59.879Z,98690.50
2023-04-28T08:19:27.237Z,98699.22
2023-04-28T08:21:57.972Z,98691.06
2023-04-28T08:24:24.828Z,98701.03
2023-04-28T08:26:58.340Z,98705.81
2023-04-28T08:29:26.113Z,98708.13
2023-04-28T08:31:53.196Z,98701.41
2023-04-28T08:34:21.186Z,98709.81
2023-04-28T08:36:50.630Z,98713.88
2023-04-28T08:39:17.781Z,98724.47
2023-04-28T08:41:46.738Z,98727.94
2023-04-28T08:44:16.025Z,98726.41
2023-04-28T08:46:57.432Z,98726.63
2023-04-28T08:49:34.757Z,98736.31
2023-04-28T08:52:01.839Z,98740.84
2023-04-28T08:54:32.793Z,98736.31
2023-04-28T08:57:08.708Z,98748.22
2023-04-28T08:59:40.413Z,98745.69
2023-04-28T09:02:12.502Z,98745.16
2023-04-28T09:04:42.070Z,98744.72
2023-04-28T09:07:13.482Z,98736.84
2023-04-28T09:09:41.276Z,98731.72
2023-04-28T09:12:11.428Z,98730.97
2023-04-28T09:14:43.657Z,98731.66
2023-04-28T09:17:14.630Z,98729.19
2023-04-28T09:19:45.990Z,98722.97
2023-04-28T09:22:26.185Z,98736.38
2023-04-28T09:24:55.674Z,98739.09
2023-04-28T09:27:29.692Z,98737.38
2023-04-28T09:29:57.247Z,98735.69
2023-04-28T09:32:28.500Z,98733.44
2023-04-28T09:35:02.672Z,98733.72
2023-04-28T09:37:32.376Z,98738.06
2023-04-28T09:40:04.955Z,98738.28
2023-04-28T09:42:44.482Z,98736.97
2023-04-28T09:45:21.248Z,98730.72
2023-04-28T09:47:50.373Z,98731.75
2023-04-28T09:50:18.505Z,98734.41
2023-04-28T09:52:59.320Z,98731.38
2023-04-28T09:55:28.567Z,98730.19
2023-04-28T09:57:56.671Z,98733.09
2023-04-28T10:00:24.308Z,98728.19
2023-04-28T10:02:53.431Z,98723.59
2023-04-28T10:05:22.669Z,98721.94
2023-04-28T10:07:53.111Z,98730.97
2023-04-28T10:10:20.530Z,98723.38
2023-04-28T10:12:52.133Z,98729.03
2023-04-28T10:15:28.602Z,98724.06
2023-04-28T10:17:55.710Z,98722.88
2023-04-28T10:20:23.245Z,98727.63
2023-04-28T10:22:58.509Z,98724.25
2023-04-28T10:25:27.947Z,98716.91
2023-04-28T10:27:55.022Z,98718.13
2023-04-28T10:30:28.112Z,98716.16
2023-04-28T10:33:14.953Z,98715.81
2023-04-28T10:35:48.769Z,98718.28
2023-04-28T10:38:26.826Z,98722.34
2023-04-28T10:40:57.182Z,98718.22
2023-04-28T10:43:32.945Z,98718.78
2023-04-28T10:46:05.157Z,98726.19
2023-04-28T10:48:38.034Z,98718.88
2023-04-28T10:51:17.648Z,98719.50
2023-04-28T10:53:51.262Z,98713.91
2023-04-28T10:56:34.485Z,98707.06
2023-04-28T10:59:07.122Z,98704.78
2023-04-28T11:01:42.641Z,98716.72
2023-04-28T11:04:20.888Z,98710.97
2023-04-28T11:07:14.977Z,98715.69
2023-04-28T11:10:17.287Z,98709.06
2023-04-28T11:13:27.502Z,98706.13
2023-04-28T11:16:10.510Z,98706.00
2023-04-28T11:19:16.645Z,98702.38
2023-04-28T11:22:58.300Z,98699.50
2023-04-28T11:25:28.615Z,98690.50
2023-04-28T11:28:05.285Z,98686.09
2023-04-28T11:30:54.956Z,98684.59
2023-04-28T11:36:33.386Z,98678.44
2023-04-28T11:39:10.072Z,98677.75
2023-04-28T11:41:57.682Z,98680.63
2023-04-28T11:44:34.589Z,98677.91
2023-04-28T11:47:29.170Z,98675.88
2023-04-28T11:50:04.402Z,98678.25
2023-04-28T11:52:41.103Z,98685.25
2023-04-28T11:55:08.346Z,98684.75
2023-04-28T11:57:35.562Z,98674.59
2023-04-28T12:00:19.936Z,98671.19
2023-04-28T12:02:47.689Z,98670.56
2023-04-28T12:05:23.872Z,98665.78
2023-04-28T12:07:51.171Z,98656.94
2023-04-28T12:10:19.015Z,98646.41
2023-04-28T12:12:52.834Z,98658.47
2023-04-28T12:15:40.109Z,98654.09
2023-04-28T12:18:12.845Z,98648.72
2023-04-28T12:20:39.970Z,98664.94
2023-04-28T12:23:08.018Z,98657.28
2023-04-28T12:25:44.058Z,98661.31
2023-04-28T12:28:12.358Z,98665.16
2023-04-28T12:31:17.666Z,98666.84
2023-04-28T12:33:44.687Z,98663.75
2023-04-28T12:36:12.487Z,98662.91
2023-04-28T12:38:52.070Z,98651.75
2023-04-28T12:41:19.817Z,98641.38
2023-04-28T12:43:46.867Z,98645.28
2023-04-28T12:46:17.650Z,98651.41
2023-04-28T12:48:45.733Z,98641.63
2023-04-28T12:51:13.037Z,98646.25
2023-04-28T12:53:41.112Z,98638.97
2023-04-28T12:56:10.545Z,98646.56
2023-04-28T12:58:38.108Z,98648.59
2023-04-28T13:01:05.483Z,98648.63
2023-04-28T13:03:32.601Z,98640.50
2023-04-28T13:06:04.914Z,98653.38
2023-04-28T13:08:38.416Z,98642.56
2023-04-28T13:11:32.401Z,98639.06
2023-04-28T13:14:00.045Z,98635.19
2023-04-28T13:16:29.555Z,98634.81
2023-04-28T13:19:00.557Z,98639.91
2023-04-28T13:21:29.131Z,98642.84
2023-04-28T13:24:00.177Z,98634.03
2023-04-28T13:26:27.237Z,98643.53
2023-04-28T13:28:53.964Z,98651.91
2023-04-28T13:31:25.946Z,98651.72
2023-04-28T13:33:56.339Z,98640.19
2023-04-28T13:36:40.617Z,98637.56
2023-04-28T13:39:21.937Z,98635.94
2023-04-28T13:42:00.826Z,98628.53
2023-04-28T13:44:33.297Z,98627.81
2023-04-28T13:47:05.506Z,98624.84
2023-04-28T13:49:39.974Z,98624.19
2023-04-28T13:52:12.057Z,98616.91
2023-04-28T13:54:39.053Z,98607.00
2023-04-28T13:57:06.079Z,98603.34
2023-04-28T13:59:36.813Z,98598.81
2023-04-28T14:02:04.185Z,98598.19
2023-04-28T14:05:08.194Z,98600.25
2023-04-28T14:07:35.192Z,98600.53
2023-04-28T14:10:02.370Z,98600.81
2023-04-28T14:12:29.228Z,98592.97
2023-04-28T14:14:56.368Z,98604.78
2023-04-28T14:17:23.650Z,98599.28
2023-04-28T14:19:51.488Z,98597.53
2023-04-28T14:22:18.492Z,98603.00
2023-04-28T14:24:45.629Z,98598.19
2023-04-28T14:27:13.343Z,98603.66
2023-04-28T14:29:40.619Z,98608.38
2023-04-28T14:32:17.719Z,98586.09
2023-04-28T14:34:53.200Z,98595.34
2023-04-28T14:37:20.476Z,98608.53
2023-04-28T14:39:48.543Z,98608.06
2023-04-28T14:42:15.480Z,98596.72
2023-04-28T14:44:42.517Z,98597.53
2023-04-28T14:47:09.731Z,98604.72
2023-04-28T14:49:36.539Z,98610.53
2023-04-28T14:52:03.624Z,98593.84
2023-04-28T14:54:32.990Z,98592.53
2023-04-28T14:57:00.216Z,98582.81
2023-04-28T14:59:29.294Z,98584.41
2023-04-28T15:01:56.677Z,98586.41
2023-04-28T15:04:29.977Z,98594.84
2023-04-28T15:06:57.317Z,98600.06
2023-04-28T15:09:24.133Z,98594.91
2023-04-28T15:11:51.760Z,98595.34
2023-04-28T15:14:18.756Z,98598.44
2023-04-28T15:16:47.082Z,98582.00
2023-04-28T15:19:14.604Z,98589.63
2023-04-28T15:21:42.862Z,98596.06
2023-04-28T15:24:10.060Z,98598.88
2023-04-28T15:26:40.027Z,98601.66
2023-04-28T15:29:06.996Z,98620.81
2023-04-28T15:31:38.012Z,98617.50
2023-04-28T15:34:06.251Z,98616.16
2023-04-28T15:36:37.158Z,98577.03
2023-04-28T15:39:06.150Z,98569.34
2023-04-28T15:41:34.139Z,98544.81
2023-04-28T15:44:01.101Z,98530.09
2023-04-28T15:46:29.078Z,98520.88
2023-04-28T15:48:56.456Z,98512.72
2023-04-28T15:51:23.674Z,98514.56
2023-04-28T15:53:55.382Z,98530.41
2023-04-28T15:56:23.831Z,98533.63
2023-04-28T15:58:51.254Z,98521.09
2023-04-28T16:01:18.664Z,98534.19
2023-04-28T16:03:53.391Z,98550.00
2023-04-28T16:06:20.453Z,98552.75
2023-04-28T16:08:47.518Z,98543.81
2023-04-28T16:11:17.938Z,98532.81
2023-04-28T16:13:45.614Z,98535.84
2023-04-28T16:16:12.711Z,98535.56
2023-04-28T16:18:39.729Z,98538.84
2023-04-28T16:21:06.739Z,98527.09
2023-04-28T16:23:33.872Z,98525.53
2023-04-28T16:26:00.985Z,98532.78
2023-04-28T16:28:27.970Z,98532.72
2023-04-28T16:30:54.877Z,98536.53
2023-04-28T16:33:21.883Z,98548.88
2023-04-28T16:35:57.766Z,98552.50
2023-04-28T16:38:24.688Z,98551.19
2023-04-28T16:40:52.381Z,98541.31
2023-04-28T16:43:19.354Z,98549.81
2023-04-28T16:45:48.507Z,98546.47
2023-04-28T16:48:17.027Z,98546.97
2023-04-28T16:50:44.058Z,98538.38
2023-04-28T16:53:11.201Z,98536.75
2023-04-28T16:55:38.111Z,98543.69
2023-04-28T16:58:05.598Z,98535.50
2023-04-28T17:00:32.677Z,98541.66
2023-04-28T17:02:59.540Z,98534.91
2023-04-28T17:05:26.784Z,98525.88
2023-04-28T17:07:55.216Z,98529.72
2023-04-28T17:10:22.753Z,98526.97
2023-04-28T17:12:49.665Z,98527.06
2023-04-28T17:15:17.553Z,98520.06
2023-04-28T17:17:50.930Z,98530.84
2023-04-28T17:20:19.901Z,98542.63
2023-04-28T17:22:47.878Z,98545.75
2023-04-28T17:25:17.102Z,98541.22
2023-04-28T17:27:44.063Z,98541.06
2023-04-28T17:30:14.554Z,98540.59
2023-04-28T17:32:41.980Z,98540.19
2023-04-28T17:35:09.290Z,98534.91
2023-04-28T17:37:38.793Z,98539.50
2023-04-28T17:40:05.989Z,98533.22
2023-04-28T17:42:35.275Z,98528.16
2023-04-28T17:45:05.318Z,98537.81
2023-04-28T17:47:32.699Z,98534.19
2023-04-28T17:49:59.947Z,98523.56
2023-04-28T17:52:32.621Z,98530.19
2023-04-28T17:54:59.727Z,98522.19
2023-04-28T17:57:26.830Z,98514.38
2023-04-28T17:59:54.062Z,98523.38
2023-04-28T18:02:21.949Z,98522.31
2023-04-28T18:04:52.065Z,98519.97
2023-04-28T18:07:19.567Z,98519.41
2023-04-28T18:09:46.345Z,98527.88
2023-04-28T18:12:13.089Z,98531.28
2023-04-28T18:14:44.373Z,98528.03
2023-04-28T18:17:11.725Z,98533.56
2023-04-28T18:19:38.755Z,98538.19
2023-04-28T18:22:05.645Z,98545.19
2023-04-28T18:24:32.503Z,98545.84
2023-04-28T18:26:59.458Z,98543.94
2023-04-28T18:29:26.628Z,98555.38
2023-04-28T18:31:54.981Z,98565.97
2023-04-28T18:34:21.872Z,98556.03
2023-04-28T18:36:48.712Z,98573.91
2023-04-28T18:39:15.785Z,98580.44
2023-04-28T18:41:42.525Z,98582.13
2023-04-28T18:44:09.417Z,98582.38
2023-04-28T18:46:36.539Z,98593.16
2023-04-28T18:49:03.752Z,98593.47
2023-04-28T18:51:30.578Z,98599.91
2023-04-28T18:53:57.561Z,98594.22
2023-04-28T18:56:24.740Z,98602.78
2023-04-28T18:58:51.893Z,98592.63
2023-04-28T19:01:18.793Z,98598.44
2023-04-28T19:03:45.929Z,98593.03
2023-04-28T19:06:13.862Z,98602.28
2023-04-28T19:08:42.854Z,98600.41
2023-04-28T19:11:12.799Z,98609.78
2023-04-28T19:13:40.337Z,98600.72
2023-04-28T19:16:07.286Z,98597.28
2023-04-28T19:18:34.228Z,98605.00
2023-04-28T19:21:02.799Z,98610.72
2023-04-28T19:23:30.992Z,98611.16
2023-04-28T19:25:59.291Z,98615.50
2023-04-28T19:28:26.633Z,98621.19
2023-04-28T19:30:54.364Z,98621.06
2023-04-28T19:33:25.481Z,98619.81
2023-04-28T19:35:57.495Z,98615.69
2023-04-28T19:38:31.971Z,98623.06
2023-04-28T19:41:04.185Z,98626.00
2023-04-28T19:43:31.922Z,98625.41
2023-04-28T19:45:58.820Z,98628.03
2023-04-28T19:48:26.457Z,98632.03
2023-04-28T19:50:54.345Z,98623.06
2023-04-28T19:53:24.080Z,98633.00
2023-04-28T19:55:54.141Z,98625.94
2023-04-28T19:58:21.402Z,98630.91
2023-04-28T20:00:48.246Z,98634.94
2023-04-28T20:03:15.261Z,98640.97
2023-04-28T20:05:42.605Z,98634.91
2023-04-28T20:08:09.440Z,98636.72
2023-04-28T20:10:36.223Z,98639.88
2023-04-28T20:13:05.875Z,98651.03
2023-04-28T20:15:36.417Z,98643.75
2023-04-28T20:18:05.816Z,98645.59
2023-04-28T20:20:33.122Z,98647.59
2023-04-28T20:23:00.023Z,98652.88
2023-04-28T20:25:28.022Z,98639.03
2023-04-28T20:27:55.020Z,98638.28
2023-04-28T20:30:22.106Z,98627.69
2023-04-28T20:32:49.586Z,98635.72
2023-04-28T20:35:17.632Z,98638.28
2023-04-28T20:37:44.533Z,98643.66
2023-04-28T20:40:11.862Z,98629.06
2023-04-28T20:42:38.824Z,98631.03
2023-04-28T20:45:07.096Z,98630.69
2023-04-28T20:47:33.980Z,98638.34
2023-04-28T20:50:00.935Z,98638.66
2023-04-28T20:52:28.660Z,98671.63
2023-04-28T20:54:58.844Z,98682.25
2023-04-28T20:57:28.167Z,98682.63
2023-04-28T20:59:55.182Z,98692.91
2023-04-28T21:02:22.145Z,98700.03
2023-04-28T21:04:49.336Z,98687.44
2023-04-28T21:07:19.337Z,98689.44
2023-04-28T21:09:46.335Z,98689.03
2023-04-28T21:12:13.428Z,98692.72
2023-04-28T21:14:45.295Z,98696.41
2023-04-28T21:17:12.199Z,98699.72
2023-04-28T21:19:39.327Z,98693.50
2023-04-28T21:22:06.269Z,98702.78
2023-04-28T21:24:33.093Z,98701.88
2023-04-28T21:27:00.059Z,98703.78
2023-04-28T21:29:27.639Z,98702.72
2023-04-28T21:31:55.083Z,98702.69
2023-04-28T21:34:24.816Z,98706.06
2023-04-28T21:36:54.251Z,98711.34
2023-04-28T21:39:22.054Z,98704.78
2023-04-28T21:41:49.054Z,98705.06
2023-04-28T21:44:20.791Z,98710.69
2023-04-28T21:46:47.821Z,98704.50
2023-04-28T21:49:14.956Z,98717.25
2023-04-28T21:51:43.022Z,98721.09
2023-04-28T21:54:09.866Z,98720.03
2023-04-28T21:56:37.547Z,98718.31
2023-04-28T21:59:06.722Z,98713.75
2023-04-28T22:01:34.329Z,98717.50
2023-04-28T22:04:04.082Z,98711.50
2023-04-28T22:06:38.640Z,98706.41
2023-04-28T22:09:05.579Z,98702.13
2023-04-28T22:11:32.902Z,98706.84
2023-04-28T22:14:02.177Z,98705.66
2023-04-28T22:16:30.524Z,98707.16
2023-04-28T22:18:59.958Z,98705.91
2023-04-28T22:21:29.222Z,98705.63
2023-04-28T22:23:56.852Z,98715.00
2023-04-28T22:26:29.971Z,98700.78
2023-04-28T22:28:56.964Z,98705.63
2023-04-28T22:31:24.085Z,98709.16
2023-04-28T22:33:53.486Z,98712.78
2023-04-28T22:36:21.860Z,98711.78
2023-04-28T22:38:48.698Z,98715.56
2023-04-28T22:41:16.172Z,98722.16
2023-04-28T22:43:43.037Z,98720.50
2023-04-28T22:46:10.182Z,98720.13
2023-04-28T22:48:37.405Z,98718.38
2023-04-28T22:51:08.773Z,98721.00
2023-04-28T22:53:42.224Z,98717.16
2023-04-28T22:56:09.129Z,98716.25
2023-04-28T22:58:36.141Z,98714.53
2023-04-28T23:01:04.431Z,98713.22
2023-04-28T23:03:33.793Z,98709.97
2023-04-28T23:06:05.379Z,98706.00
2023-04-28T23:08:35.496Z,98711.94
2023-04-28T23:11:05.588Z,98713.44
2023-04-28T23:13:32.859Z,98709.84
2023-04-28T23:16:03.161Z,98713.72
2023-04-28T23:18:33.434Z,98703.25
2023-04-28T23:21:00.616Z,98704.13
2023-04-28T23:23:27.599Z,98702.13
2023-04-28T23:25:55.725Z,98699.50
2023-04-28T23:28:22.628Z,98701.19
2023-04-28T23:30:49.722Z,98702.13
2023-04-28T23:33:16.719Z,98707.41
2023-04-28T23:35:46.339Z,98703.91
2023-04-28T23:38:13.499Z,98700.16
2023-04-28T23:40:41.344Z,98708.25
2023-04-28T23:43:08.422Z,98712.03
2023-04-28T23:45:36.279Z,98707.91
2023-04-28T23:48:03.453Z,98709.63
2023-04-28T23:50:30.237Z,98712.81
2023-04-28T23:52:57.764Z,98705.84
2023-04-28T23:55:24.698Z,98704.25
2023-04-28T23:57:51.590Z,98707.06
